UBC Old Black Spruce (OBS) Site

Current climate data:

Measured at 16:00:00, 2017-12-16 (Local time)

 Air temperature        =  -2.38 C 
 Relative humidity      =  91.87 % 
 Wind speed             =   2.24 m/s
 Wind direction         = 303.86  
 Barometric pressure    =  93.68 kPa 
 Precipitation (last 30 min) =   0.00 mm 
 Precipitation (24h totals ending at  4:00 AM today)  =   8.54 mm 
 Precipitation (24h totals ending at  4:00 PM today)  =   1.72 mm 
 Cumulative Precipitation (2017) = 2066 mm 

Current Picture (Time stamp:UTC)  (Full size image)

Fire index data:

Year  Month  Day  Hour  Tair(C) RH(%) Wind(m/s) W_Dir(deg)  Rain(mm)   ffmc     dmc      dc     bui     isi     fwi     dsr     Rating
2017     11   17   13  -13.19   69.43    3.72    294.61      7.99     29.71    1.69    4.19    1.68    0.01    0.00    0.00       1  
2017     11   18   13  -14.27   66.22    2.74    297.12      0.28     39.89    1.69    4.19    1.68    0.06    0.02    0.00       1  
2017     11   19   13  -10.63   54.89    1.98    143.30      0.00     50.98    1.69    4.19    1.68    0.26    0.08    0.00       1  
2017     11   20   13  -11.14   65.94    0.00    285.00      1.60     43.93    1.21    4.19    1.41    0.07    0.02    0.00       1  
2017     11   21   13  -13.31   65.33    1.01    330.99      0.63     49.81    1.21    4.19    1.41    0.19    0.05    0.00       1  
2017     11   22   13  -11.65   64.97    0.00    285.00      0.06     54.16    1.21    4.19    1.41    0.26    0.07    0.00       1  
2017     11   23   13  -10.82   77.78    3.55    155.36      0.00     59.89    1.21    4.19    1.41    0.77    0.22    0.00       1  
2017     11   24   13  -10.14   61.65    4.55    350.72      0.05     67.01    1.21    4.19    1.41    1.30    0.37    0.00       1  
2017     11   25   13   -5.97   79.50    3.17    253.03      0.25     70.17    1.21    4.19    1.41    1.12    0.32    0.00       1  
2017     11   26   13  -12.99   72.05    0.00    285.00      0.00     71.32    1.21    4.19    1.41    0.65    0.18    0.00       1  
2017     11   27   13   -6.24   77.31    6.20    290.49      0.08     73.92    1.21    4.19    1.41    2.23    0.63    0.01       2  
2017     11   28   13   -9.87   58.56    2.54    236.63      2.41     54.86    0.27    4.19    0.46    0.44    0.10    0.00       1  
2017     11   29   13    0.98   54.66    2.98    339.84      0.07     67.59    0.39    4.19    0.64    0.99    0.24    0.00       1  
2017     11   30   13   -0.17   55.51    4.14    277.84      0.11     75.11    0.45    4.19    0.71    1.63    0.40    0.01       1  
2017     12    1   13   -1.72   57.97    2.31    254.50      0.09     78.30    0.45    4.19    0.71    1.47    0.36    0.00       1  
2017     12    2   13   -2.09   70.39    2.64    307.25      0.03     79.15    0.45    4.19    0.71    1.69    0.42    0.01       1  
2017     12    3   13   -6.98   84.44    1.48    231.75      0.02     78.69    0.45    4.19    0.71    1.31    0.32    0.00       1  
2017     12    4   13  -15.89   67.75    5.23    343.26      0.41     78.78    0.45    4.19    0.71    2.61    0.64    0.01       2  
2017     12    5   13  -13.51   76.45    1.28    119.98      0.72     74.91    0.45    4.19    0.71    0.96    0.24    0.00       1  
2017     12    6   13  -16.89   71.82    3.56    305.78      0.54     75.11    0.45    4.19    0.71    1.47    0.36    0.00       1  
2017     12    7   13   -4.81   88.18    2.46    324.36      0.00     75.25    0.45    4.19    0.71    1.21    0.30    0.00       1  
2017     12    8   13   -0.07   65.93    3.65    347.19      0.00     78.08    0.49    4.19    0.76    1.84    0.46    0.01       1  
2017     12    9   13    1.67   53.39    5.83    336.81      0.00     81.35    0.63    4.19    0.92    3.80    0.98    0.03       2  
2017     12   10   13   -0.29   76.47    3.42    294.04      0.00     81.18    0.66    4.19    0.94    2.41    0.63    0.01       2  
2017     12   11   13   -3.60   90.72    1.63    244.34      2.31     53.09    0.00    4.19    0.00    0.31    0.06    0.00       1  
2017     12   12   13    2.36   75.59    5.10    324.40      0.62     63.15    0.10    4.32    0.18    1.23    0.26    0.00       1  
2017     12   13   13   -1.43   77.70    0.00    285.00      0.02     65.65    0.10    4.32    0.18    0.54    0.12    0.00       1  
2017     12   14   13   -6.45   85.24    2.99    335.75      1.37     57.22    0.10    4.32    0.18    0.58    0.12    0.00       1  
2017     12   15   13  -11.06   75.94    3.82    122.34      5.86     30.14    0.00    0.00    0.00    0.01    0.00    0.00       1  
2017     12   16   13   -4.53   89.76    2.20    274.60      3.65     21.16    0.00    0.00    0.00    0.00    0.00    0.00       1  

(c) 2017 Biomet Group, University of British Columbia, Canada